Bad Gleichenberg, Austria
Current Conditions -  °F | °C
As of 2:20 AM on Saturday 22 Nov 2014 (Local Time) from LOWG Reporting Station
Broken Clouds Broken Clouds  
Wind Chill: 43°   Ceiling: 2800
Heat Index: 43°   Visibility: 6mi
Dew Point: 39°   Wind: 1mph
Humidity: 87%   Direction: NA
Pressure: 30.24"   Gusts: NA
Location:  46.88°N, 15.91°E
Report Text: LOWG 220020Z AUTO VRB01KT 9999 BKN028 06/04 Q1024
Loading
Personal Weather Stations






























Interactive Weather Map New forecast layout! Learn more

10-Day Weather Forecast

Advertisements
Track Severe Weather on mobile